sensor_id;sensor_type;location;lat;lon;timestamp;P1;durP1;ratioP1;P2;durP2;ratioP2
40623;SDS011;26325;48.594;11.650;2022-07-30T00:02:17;5.43;;;4.97;;
40623;SDS011;26325;48.594;11.650;2022-07-30T00:04:44;4.30;;;4.00;;
40623;SDS011;26325;48.594;11.650;2022-07-30T00:07:12;4.78;;;4.47;;
40623;SDS011;26325;48.594;11.650;2022-07-30T00:09:38;4.47;;;4.13;;
40623;SDS011;26325;48.594;11.650;2022-07-30T00:14:31;4.88;;;4.50;;
40623;SDS011;26325;48.594;11.650;2022-07-30T00:16:56;4.30;;;4.00;;
40623;SDS011;26325;48.594;11.650;2022-07-30T00:19:25;4.70;;;4.30;;
40623;SDS011;26325;48.594;11.650;2022-07-30T00:26:44;5.78;;;4.15;;
40623;SDS011;26325;48.594;11.650;2022-07-30T00:31:35;4.72;;;4.30;;
40623;SDS011;26325;48.594;11.650;2022-07-30T00:36:26;4.18;;;3.88;;
40623;SDS011;26325;48.594;11.650;2022-07-30T00:41:17;4.30;;;3.90;;
40623;SDS011;26325;48.594;11.650;2022-07-30T00:46:09;4.72;;;4.40;;
40623;SDS011;26325;48.594;11.650;2022-07-30T00:51:00;4.10;;;3.80;;
40623;SDS011;26325;48.594;11.650;2022-07-30T00:55:51;4.68;;;4.38;;
40623;SDS011;26325;48.594;11.650;2022-07-30T01:00:42;4.75;;;3.90;;
40623;SDS011;26325;48.594;11.650;2022-07-30T01:05:33;4.05;;;3.75;;
40623;SDS011;26325;48.594;11.650;2022-07-30T01:10:27;4.00;;;3.70;;
40623;SDS011;26325;48.594;11.650;2022-07-30T01:15:23;6.00;;;4.05;;
40623;SDS011;26325;48.594;11.650;2022-07-30T01:17:49;4.15;;;3.85;;
40623;SDS011;26325;48.594;11.650;2022-07-30T01:20:23;4.07;;;3.78;;
40623;SDS011;26325;48.594;11.650;2022-07-30T01:23:15;6.10;;;3.97;;
40623;SDS011;26325;48.594;11.650;2022-07-30T01:28:35;5.15;;;4.65;;
40623;SDS011;26325;48.594;11.650;2022-07-30T01:31:05;4.65;;;3.88;;
40623;SDS011;26325;48.594;11.650;2022-07-30T01:33:33;4.45;;;3.72;;
40623;SDS011;26325;48.594;11.650;2022-07-30T01:36:03;4.35;;;3.75;;
40623;SDS011;26325;48.594;11.650;2022-07-30T01:38:42;4.38;;;4.05;;
40623;SDS011;26325;48.594;11.650;2022-07-30T01:41:12;4.25;;;3.85;;
40623;SDS011;26325;48.594;11.650;2022-07-30T01:43:39;5.32;;;4.07;;
40623;SDS011;26325;48.594;11.650;2022-07-30T01:46:06;3.75;;;3.55;;
40623;SDS011;26325;48.594;11.650;2022-07-30T01:48:37;4.22;;;3.83;;
40623;SDS011;26325;48.594;11.650;2022-07-30T01:51:08;4.20;;;3.80;;
40623;SDS011;26325;48.594;11.650;2022-07-30T01:53:38;3.97;;;3.70;;
40623;SDS011;26325;48.594;11.650;2022-07-30T01:56:07;4.07;;;3.78;;
40623;SDS011;26325;48.594;11.650;2022-07-30T01:58:36;4.28;;;3.97;;
40623;SDS011;26325;48.594;11.650;2022-07-30T02:01:04;3.85;;;3.45;;
40623;SDS011;26325;48.594;11.650;2022-07-30T02:03:30;3.92;;;3.63;;
40623;SDS011;26325;48.594;11.650;2022-07-30T02:08:44;3.88;;;3.58;;
40623;SDS011;26325;48.594;11.650;2022-07-30T02:11:17;4.07;;;3.72;;
40623;SDS011;26325;48.594;11.650;2022-07-30T02:14:10;3.90;;;3.65;;
40623;SDS011;26325;48.594;11.650;2022-07-30T02:16:41;6.10;;;3.50;;
40623;SDS011;26325;48.594;11.650;2022-07-30T02:19:15;3.70;;;3.40;;
40623;SDS011;26325;48.594;11.650;2022-07-30T02:21:55;4.75;;;3.83;;
40623;SDS011;26325;48.594;11.650;2022-07-30T02:24:26;4.72;;;3.95;;
40623;SDS011;26325;48.594;11.650;2022-07-30T02:26:55;3.75;;;3.33;;
40623;SDS011;26325;48.594;11.650;2022-07-30T02:29:30;4.70;;;3.75;;
40623;SDS011;26325;48.594;11.650;2022-07-30T02:31:58;4.15;;;3.70;;
40623;SDS011;26325;48.594;11.650;2022-07-30T02:34:26;3.88;;;3.53;;
40623;SDS011;26325;48.594;11.650;2022-07-30T02:36:53;4.00;;;3.70;;
40623;SDS011;26325;48.594;11.650;2022-07-30T02:39:23;3.88;;;3.45;;
40623;SDS011;26325;48.594;11.650;2022-07-30T02:41:51;3.97;;;3.58;;
40623;SDS011;26325;48.594;11.650;2022-07-30T02:44:19;4.20;;;3.67;;
40623;SDS011;26325;48.594;11.650;2022-07-30T02:46:47;4.60;;;3.40;;
40623;SDS011;26325;48.594;11.650;2022-07-30T02:49:16;6.22;;;3.30;;
40623;SDS011;26325;48.594;11.650;2022-07-30T02:51:48;3.90;;;3.60;;
40623;SDS011;26325;48.594;11.650;2022-07-30T02:54:17;4.50;;;3.75;;
40623;SDS011;26325;48.594;11.650;2022-07-30T02:56:47;3.95;;;3.60;;
40623;SDS011;26325;48.594;11.650;2022-07-30T02:59:15;3.95;;;3.60;;
40623;SDS011;26325;48.594;11.650;2022-07-30T03:01:44;5.85;;;4.28;;
40623;SDS011;26325;48.594;11.650;2022-07-30T03:04:10;3.65;;;3.38;;
40623;SDS011;26325;48.594;11.650;2022-07-30T03:06:38;4.28;;;3.97;;
40623;SDS011;26325;48.594;11.650;2022-07-30T03:09:05;4.25;;;3.85;;
40623;SDS011;26325;48.594;11.650;2022-07-30T03:13:57;3.50;;;3.22;;
40623;SDS011;26325;48.594;11.650;2022-07-30T03:18:50;3.60;;;3.30;;
40623;SDS011;26325;48.594;11.650;2022-07-30T03:21:18;4.13;;;3.83;;
40623;SDS011;26325;48.594;11.650;2022-07-30T03:23:46;4.43;;;3.80;;
40623;SDS011;26325;48.594;11.650;2022-07-30T03:26:16;4.75;;;4.30;;
40623;SDS011;26325;48.594;11.650;2022-07-30T03:28:45;4.93;;;3.83;;
40623;SDS011;26325;48.594;11.650;2022-07-30T03:31:12;3.78;;;3.58;;
40623;SDS011;26325;48.594;11.650;2022-07-30T03:33:41;4.20;;;3.90;;
40623;SDS011;26325;48.594;11.650;2022-07-30T03:36:07;4.18;;;3.88;;
40623;SDS011;26325;48.594;11.650;2022-07-30T03:38:36;4.22;;;3.92;;
40623;SDS011;26325;48.594;11.650;2022-07-30T03:41:06;4.75;;;4.40;;
40623;SDS011;26325;48.594;11.650;2022-07-30T03:43:33;4.80;;;4.50;;
40623;SDS011;26325;48.594;11.650;2022-07-30T03:46:01;4.63;;;4.22;;
40623;SDS011;26325;48.594;11.650;2022-07-30T03:48:28;4.35;;;3.95;;
40623;SDS011;26325;48.594;11.650;2022-07-30T03:50:57;4.47;;;4.18;;
40623;SDS011;26325;48.594;11.650;2022-07-30T03:53:23;4.70;;;4.30;;
40623;SDS011;26325;48.594;11.650;2022-07-30T03:58:16;4.88;;;4.47;;
40623;SDS011;26325;48.594;11.650;2022-07-30T04:03:22;5.05;;;4.63;;
40623;SDS011;26325;48.594;11.650;2022-07-30T04:05:52;5.57;;;4.90;;
40623;SDS011;26325;48.594;11.650;2022-07-30T04:08:18;4.85;;;4.53;;
40623;SDS011;26325;48.594;11.650;2022-07-30T04:13:09;5.43;;;5.10;;
40623;SDS011;26325;48.594;11.650;2022-07-30T04:18:07;5.60;;;5.20;;
40623;SDS011;26325;48.594;11.650;2022-07-30T04:20:41;5.70;;;4.43;;
40623;SDS011;26325;48.594;11.650;2022-07-30T04:23:12;5.75;;;5.28;;
40623;SDS011;26325;48.594;11.650;2022-07-30T04:25:39;4.90;;;4.60;;
40623;SDS011;26325;48.594;11.650;2022-07-30T04:28:08;5.38;;;4.97;;
40623;SDS011;26325;48.594;11.650;2022-07-30T04:30:38;5.03;;;4.72;;
40623;SDS011;26325;48.594;11.650;2022-07-30T04:33:05;5.78;;;5.30;;
40623;SDS011;26325;48.594;11.650;2022-07-30T04:35:34;5.03;;;4.70;;
40623;SDS011;26325;48.594;11.650;2022-07-30T04:40:29;5.70;;;5.30;;
40623;SDS011;26325;48.594;11.650;2022-07-30T04:42:56;5.28;;;4.88;;
40623;SDS011;26325;48.594;11.650;2022-07-30T04:45:22;5.38;;;5.03;;
40623;SDS011;26325;48.594;11.650;2022-07-30T04:50:13;6.07;;;5.47;;
40623;SDS011;26325;48.594;11.650;2022-07-30T04:55:06;5.63;;;5.13;;
40623;SDS011;26325;48.594;11.650;2022-07-30T04:57:34;5.75;;;5.18;;
40623;SDS011;26325;48.594;11.650;2022-07-30T05:00:04;5.72;;;5.32;;
40623;SDS011;26325;48.594;11.650;2022-07-30T05:02:32;5.57;;;5.15;;
40623;SDS011;26325;48.594;11.650;2022-07-30T05:04:59;5.70;;;5.20;;
40623;SDS011;26325;48.594;11.650;2022-07-30T05:07:26;5.28;;;4.80;;
40623;SDS011;26325;48.594;11.650;2022-07-30T05:09:53;5.13;;;4.82;;
40623;SDS011;26325;48.594;11.650;2022-07-30T05:14:45;5.40;;;4.90;;
40623;SDS011;26325;48.594;11.650;2022-07-30T05:19:37;5.50;;;5.00;;
40623;SDS011;26325;48.594;11.650;2022-07-30T05:24:32;5.50;;;5.10;;
40623;SDS011;26325;48.594;11.650;2022-07-30T05:29:23;6.15;;;5.55;;
40623;SDS011;26325;48.594;11.650;2022-07-30T05:34:15;6.18;;;5.57;;
40623;SDS011;26325;48.594;11.650;2022-07-30T05:39:06;5.30;;;4.90;;
40623;SDS011;26325;48.594;11.650;2022-07-30T05:43:58;5.30;;;4.90;;
40623;SDS011;26325;48.594;11.650;2022-07-30T05:48:51;5.50;;;5.10;;
40623;SDS011;26325;48.594;11.650;2022-07-30T05:51:20;6.97;;;6.28;;
40623;SDS011;26325;48.594;11.650;2022-07-30T05:53:46;5.45;;;5.05;;
40623;SDS011;26325;48.594;11.650;2022-07-30T05:58:37;5.30;;;4.97;;
40623;SDS011;26325;48.594;11.650;2022-07-30T06:03:31;5.80;;;5.40;;
40623;SDS011;26325;48.594;11.650;2022-07-30T06:05:58;5.75;;;5.35;;
40623;SDS011;26325;48.594;11.650;2022-07-30T06:10:49;5.88;;;5.47;;
40623;SDS011;26325;48.594;11.650;2022-07-30T06:13:14;6.50;;;6.03;;
40623;SDS011;26325;48.594;11.650;2022-07-30T06:15:40;6.95;;;6.35;;
40623;SDS011;26325;48.594;11.650;2022-07-30T06:20:31;7.20;;;6.60;;
40623;SDS011;26325;48.594;11.650;2022-07-30T06:22:56;7.07;;;6.47;;
40623;SDS011;26325;48.594;11.650;2022-07-30T06:27:48;7.45;;;6.90;;
40623;SDS011;26325;48.594;11.650;2022-07-30T06:32:39;5.80;;;5.30;;
40623;SDS011;26325;48.594;11.650;2022-07-30T06:37:30;7.60;;;7.00;;
40623;SDS011;26325;48.594;11.650;2022-07-30T06:42:24;6.82;;;6.20;;
40623;SDS011;26325;48.594;11.650;2022-07-30T06:44:50;6.00;;;5.60;;
40623;SDS011;26325;48.594;11.650;2022-07-30T06:49:50;5.82;;;5.43;;
40623;SDS011;26325;48.594;11.650;2022-07-30T06:52:17;7.25;;;6.72;;
40623;SDS011;26325;48.594;11.650;2022-07-30T06:54:42;6.55;;;6.13;;
40623;SDS011;26325;48.594;11.650;2022-07-30T06:59:33;6.35;;;5.85;;
40623;SDS011;26325;48.594;11.650;2022-07-30T07:02:01;7.72;;;7.13;;
40623;SDS011;26325;48.594;11.650;2022-07-30T07:04:27;6.70;;;6.20;;
40623;SDS011;26325;48.594;11.650;2022-07-30T07:06:53;6.45;;;5.95;;
40623;SDS011;26325;48.594;11.650;2022-07-30T07:09:19;6.50;;;6.00;;
40623;SDS011;26325;48.594;11.650;2022-07-30T07:11:47;6.32;;;5.80;;
40623;SDS011;26325;48.594;11.650;2022-07-30T07:14:15;5.53;;;4.80;;
40623;SDS011;26325;48.594;11.650;2022-07-30T07:16:41;14.50;;;6.18;;
40623;SDS011;26325;48.594;11.650;2022-07-30T07:19:09;19.88;;;6.13;;
40623;SDS011;26325;48.594;11.650;2022-07-30T07:21:35;6.10;;;5.70;;
40623;SDS011;26325;48.594;11.650;2022-07-30T07:24:00;5.30;;;4.90;;
40623;SDS011;26325;48.594;11.650;2022-07-30T07:26:30;5.28;;;4.78;;
40623;SDS011;26325;48.594;11.650;2022-07-30T07:29:04;5.72;;;5.32;;
40623;SDS011;26325;48.594;11.650;2022-07-30T07:31:29;6.13;;;5.60;;
40623;SDS011;26325;48.594;11.650;2022-07-30T07:33:55;6.35;;;5.75;;
40623;SDS011;26325;48.594;11.650;2022-07-30T07:36:21;6.30;;;5.78;;
40623;SDS011;26325;48.594;11.650;2022-07-30T07:38:52;5.97;;;5.35;;
40623;SDS011;26325;48.594;11.650;2022-07-30T07:41:18;6.28;;;5.70;;
40623;SDS011;26325;48.594;11.650;2022-07-30T07:43:45;5.78;;;5.38;;
40623;SDS011;26325;48.594;11.650;2022-07-30T07:46:11;6.07;;;5.57;;
40623;SDS011;26325;48.594;11.650;2022-07-30T07:48:45;5.68;;;5.10;;
40623;SDS011;26325;48.594;11.650;2022-07-30T07:51:15;5.47;;;5.07;;
40623;SDS011;26325;48.594;11.650;2022-07-30T07:53:41;6.18;;;5.68;;
40623;SDS011;26325;48.594;11.650;2022-07-30T07:56:09;5.47;;;4.97;;
40623;SDS011;26325;48.594;11.650;2022-07-30T07:58:34;5.15;;;4.65;;
40623;SDS011;26325;48.594;11.650;2022-07-30T08:01:02;4.95;;;4.60;;
40623;SDS011;26325;48.594;11.650;2022-07-30T08:03:28;4.82;;;4.50;;
40623;SDS011;26325;48.594;11.650;2022-07-30T08:05:53;5.20;;;4.70;;
40623;SDS011;26325;48.594;11.650;2022-07-30T08:08:22;4.80;;;4.50;;
40623;SDS011;26325;48.594;11.650;2022-07-30T08:10:50;6.05;;;5.65;;
40623;SDS011;26325;48.594;11.650;2022-07-30T08:13:23;5.47;;;5.18;;
40623;SDS011;26325;48.594;11.650;2022-07-30T08:15:53;4.60;;;4.30;;
40623;SDS011;26325;48.594;11.650;2022-07-30T08:18:19;5.93;;;5.53;;
40623;SDS011;26325;48.594;11.650;2022-07-30T08:20:44;4.43;;;4.13;;
40623;SDS011;26325;48.594;11.650;2022-07-30T08:23:14;5.28;;;4.85;;
40623;SDS011;26325;48.594;11.650;2022-07-30T08:25:39;5.32;;;5.00;;
40623;SDS011;26325;48.594;11.650;2022-07-30T08:28:05;5.03;;;4.72;;
40623;SDS011;26325;48.594;11.650;2022-07-30T08:30:31;4.57;;;4.28;;
40623;SDS011;26325;48.594;11.650;2022-07-30T08:32:57;5.10;;;4.60;;
40623;SDS011;26325;48.594;11.650;2022-07-30T08:35:23;5.07;;;4.72;;
40623;SDS011;26325;48.594;11.650;2022-07-30T08:37:48;5.68;;;5.20;;
40623;SDS011;26325;48.594;11.650;2022-07-30T08:40:14;4.65;;;4.25;;
40623;SDS011;26325;48.594;11.650;2022-07-30T08:42:42;4.95;;;4.55;;
40623;SDS011;26325;48.594;11.650;2022-07-30T08:45:08;4.78;;;4.40;;
40623;SDS011;26325;48.594;11.650;2022-07-30T08:47:36;4.60;;;4.30;;
40623;SDS011;26325;48.594;11.650;2022-07-30T08:50:05;4.22;;;4.00;;
40623;SDS011;26325;48.594;11.650;2022-07-30T08:52:34;4.60;;;4.30;;
40623;SDS011;26325;48.594;11.650;2022-07-30T08:55:03;5.22;;;4.80;;
40623;SDS011;26325;48.594;11.650;2022-07-30T08:57:31;5.25;;;4.85;;
40623;SDS011;26325;48.594;11.650;2022-07-30T08:59:58;3.92;;;3.70;;
40623;SDS011;26325;48.594;11.650;2022-07-30T09:02:24;4.18;;;3.83;;
40623;SDS011;26325;48.594;11.650;2022-07-30T09:04:49;4.90;;;4.60;;
40623;SDS011;26325;48.594;11.650;2022-07-30T09:07:15;4.40;;;4.10;;
40623;SDS011;26325;48.594;11.650;2022-07-30T09:09:41;4.10;;;3.80;;
40623;SDS011;26325;48.594;11.650;2022-07-30T09:12:42;4.10;;;3.83;;
40623;SDS011;26325;48.594;11.650;2022-07-30T09:15:14;4.32;;;4.03;;
40623;SDS011;26325;48.594;11.650;2022-07-30T09:17:45;4.70;;;4.30;;
40623;SDS011;26325;48.594;11.650;2022-07-30T09:20:18;4.45;;;3.97;;
40623;SDS011;26325;48.594;11.650;2022-07-30T09:22:50;5.47;;;4.00;;
40623;SDS011;26325;48.594;11.650;2022-07-30T09:25:43;4.70;;;4.30;;
40623;SDS011;26325;48.594;11.650;2022-07-30T09:28:10;4.95;;;4.43;;
40623;SDS011;26325;48.594;11.650;2022-07-30T09:30:47;4.68;;;4.15;;
40623;SDS011;26325;48.594;11.650;2022-07-30T09:33:13;4.50;;;4.10;;
40623;SDS011;26325;48.594;11.650;2022-07-30T09:35:40;4.30;;;4.00;;
40623;SDS011;26325;48.594;11.650;2022-07-30T09:38:07;4.50;;;4.10;;
40623;SDS011;26325;48.594;11.650;2022-07-30T09:40:33;5.10;;;4.70;;
40623;SDS011;26325;48.594;11.650;2022-07-30T09:45:32;4.25;;;3.95;;
40623;SDS011;26325;48.594;11.650;2022-07-30T09:47:57;4.70;;;4.35;;
40623;SDS011;26325;48.594;11.650;2022-07-30T09:50:30;4.72;;;4.22;;
40623;SDS011;26325;48.594;11.650;2022-07-30T09:53:05;4.60;;;4.30;;
40623;SDS011;26325;48.594;11.650;2022-07-30T09:55:35;4.55;;;4.15;;
40623;SDS011;26325;48.594;11.650;2022-07-30T09:58:03;4.47;;;4.15;;
40623;SDS011;26325;48.594;11.650;2022-07-30T10:00:34;4.65;;;4.25;;
40623;SDS011;26325;48.594;11.650;2022-07-30T10:03:23;4.43;;;4.03;;
40623;SDS011;26325;48.594;11.650;2022-07-30T10:05:59;4.78;;;4.38;;
40623;SDS011;26325;48.594;11.650;2022-07-30T10:08:45;5.03;;;4.20;;
40623;SDS011;26325;48.594;11.650;2022-07-30T10:11:16;3.97;;;3.70;;
40623;SDS011;26325;48.594;11.650;2022-07-30T10:13:44;4.20;;;3.90;;
40623;SDS011;26325;48.594;11.650;2022-07-30T10:16:12;4.15;;;3.92;;
40623;SDS011;26325;48.594;11.650;2022-07-30T10:18:41;4.10;;;3.80;;
40623;SDS011;26325;48.594;11.650;2022-07-30T10:21:07;4.45;;;4.10;;
40623;SDS011;26325;48.594;11.650;2022-07-30T10:23:33;4.40;;;4.00;;
40623;SDS011;26325;48.594;11.650;2022-07-30T10:26:02;4.05;;;3.80;;
40623;SDS011;26325;48.594;11.650;2022-07-30T10:28:29;4.28;;;3.97;;
40623;SDS011;26325;48.594;11.650;2022-07-30T10:30:57;4.00;;;3.70;;
40623;SDS011;26325;48.594;11.650;2022-07-30T10:33:26;4.15;;;3.75;;
40623;SDS011;26325;48.594;11.650;2022-07-30T10:35:53;4.43;;;4.13;;
40623;SDS011;26325;48.594;11.650;2022-07-30T10:38:21;3.85;;;3.55;;
40623;SDS011;26325;48.594;11.650;2022-07-30T10:44:18;4.20;;;3.90;;
40623;SDS011;26325;48.594;11.650;2022-07-30T10:47:07;3.75;;;3.45;;
40623;SDS011;26325;48.594;11.650;2022-07-30T10:49:35;3.28;;;3.08;;
40623;SDS011;26325;48.594;11.650;2022-07-30T10:52:01;3.58;;;3.10;;
40623;SDS011;26325;48.594;11.650;2022-07-30T10:59:29;3.58;;;2.90;;
40623;SDS011;26325;48.594;11.650;2022-07-30T11:02:23;2.90;;;2.70;;
40623;SDS011;26325;48.594;11.650;2022-07-30T11:05:04;3.42;;;3.00;;
40623;SDS011;26325;48.594;11.650;2022-07-30T11:07:41;3.05;;;2.85;;
40623;SDS011;26325;48.594;11.650;2022-07-30T11:13:07;3.33;;;3.03;;
40623;SDS011;26325;48.594;11.650;2022-07-30T11:15:53;3.17;;;2.55;;
40623;SDS011;26325;48.594;11.650;2022-07-30T11:18:21;2.97;;;2.53;;
40623;SDS011;26325;48.594;11.650;2022-07-30T11:21:17;3.55;;;2.50;;
40623;SDS011;26325;48.594;11.650;2022-07-30T11:23:44;2.97;;;2.78;;
40623;SDS011;26325;48.594;11.650;2022-07-30T11:32:32;3.30;;;2.90;;
40623;SDS011;26325;48.594;11.650;2022-07-30T11:35:17;3.30;;;3.00;;
40623;SDS011;26325;48.594;11.650;2022-07-30T11:37:57;2.78;;;2.60;;
40623;SDS011;26325;48.594;11.650;2022-07-30T11:43:32;3.15;;;2.30;;
40623;SDS011;26325;48.594;11.650;2022-07-30T11:46:09;2.63;;;2.42;;
40623;SDS011;26325;48.594;11.650;2022-07-30T11:48:37;3.03;;;2.78;;
40623;SDS011;26325;48.594;11.650;2022-07-30T11:51:04;2.50;;;2.40;;
40623;SDS011;26325;48.594;11.650;2022-07-30T11:53:31;3.83;;;2.80;;
40623;SDS011;26325;48.594;11.650;2022-07-30T11:55:58;6.50;;;3.03;;
40623;SDS011;26325;48.594;11.650;2022-07-30T11:58:32;3.30;;;2.50;;
40623;SDS011;26325;48.594;11.650;2022-07-30T12:01:01;4.60;;;2.53;;
40623;SDS011;26325;48.594;11.650;2022-07-30T12:03:41;2.75;;;2.50;;
40623;SDS011;26325;48.594;11.650;2022-07-30T12:06:10;2.95;;;2.67;;
40623;SDS011;26325;48.594;11.650;2022-07-30T12:08:49;2.78;;;2.65;;
40623;SDS011;26325;48.594;11.650;2022-07-30T12:11:17;4.32;;;3.05;;
40623;SDS011;26325;48.594;11.650;2022-07-30T12:13:57;2.83;;;2.60;;
40623;SDS011;26325;48.594;11.650;2022-07-30T12:16:29;2.70;;;2.50;;
40623;SDS011;26325;48.594;11.650;2022-07-30T12:19:03;3.03;;;2.30;;
40623;SDS011;26325;48.594;11.650;2022-07-30T12:21:29;5.00;;;2.80;;
40623;SDS011;26325;48.594;11.650;2022-07-30T12:24:00;2.30;;;2.20;;
40623;SDS011;26325;48.594;11.650;2022-07-30T12:26:29;3.00;;;2.70;;
40623;SDS011;26325;48.594;11.650;2022-07-30T12:29:00;2.70;;;2.50;;
40623;SDS011;26325;48.594;11.650;2022-07-30T12:31:46;3.45;;;2.47;;
40623;SDS011;26325;48.594;11.650;2022-07-30T12:34:24;3.97;;;2.58;;
40623;SDS011;26325;48.594;11.650;2022-07-30T12:36:50;2.40;;;2.30;;
40623;SDS011;26325;48.594;11.650;2022-07-30T12:39:23;2.88;;;2.53;;
40623;SDS011;26325;48.594;11.650;2022-07-30T12:41:52;4.18;;;2.78;;
40623;SDS011;26325;48.594;11.650;2022-07-30T12:44:40;2.80;;;2.60;;
40623;SDS011;26325;48.594;11.650;2022-07-30T12:47:21;2.80;;;2.63;;
40623;SDS011;26325;48.594;11.650;2022-07-30T12:49:49;2.80;;;2.70;;
40623;SDS011;26325;48.594;11.650;2022-07-30T12:52:21;2.45;;;2.35;;
40623;SDS011;26325;48.594;11.650;2022-07-30T12:57:51;2.50;;;2.40;;
40623;SDS011;26325;48.594;11.650;2022-07-30T13:00:26;2.75;;;2.55;;
40623;SDS011;26325;48.594;11.650;2022-07-30T13:02:56;2.92;;;2.63;;
40623;SDS011;26325;48.594;11.650;2022-07-30T13:05:48;3.33;;;2.40;;
40623;SDS011;26325;48.594;11.650;2022-07-30T13:08:15;2.78;;;2.60;;
40623;SDS011;26325;48.594;11.650;2022-07-30T13:10:56;2.60;;;2.45;;
40623;SDS011;26325;48.594;11.650;2022-07-30T13:13:24;4.88;;;2.40;;
40623;SDS011;26325;48.594;11.650;2022-07-30T13:16:00;3.08;;;2.30;;
40623;SDS011;26325;48.594;11.650;2022-07-30T13:18:28;2.67;;;2.47;;
40623;SDS011;26325;48.594;11.650;2022-07-30T13:20:58;2.70;;;2.50;;
40623;SDS011;26325;48.594;11.650;2022-07-30T13:23:25;5.60;;;2.65;;
40623;SDS011;26325;48.594;11.650;2022-07-30T13:25:52;2.47;;;2.28;;
40623;SDS011;26325;48.594;11.650;2022-07-30T13:28:18;2.42;;;2.20;;
40623;SDS011;26325;48.594;11.650;2022-07-30T13:30:47;2.60;;;2.40;;
40623;SDS011;26325;48.594;11.650;2022-07-30T13:33:13;2.40;;;2.30;;
40623;SDS011;26325;48.594;11.650;2022-07-30T13:35:40;3.13;;;2.33;;
40623;SDS011;26325;48.594;11.650;2022-07-30T13:38:05;2.47;;;2.30;;
40623;SDS011;26325;48.594;11.650;2022-07-30T13:40:32;3.15;;;2.25;;
40623;SDS011;26325;48.594;11.650;2022-07-30T13:43:01;2.53;;;2.42;;
40623;SDS011;26325;48.594;11.650;2022-07-30T13:45:28;2.55;;;2.30;;
40623;SDS011;26325;48.594;11.650;2022-07-30T13:47:54;2.70;;;2.50;;
40623;SDS011;26325;48.594;11.650;2022-07-30T13:50:26;2.90;;;2.70;;
40623;SDS011;26325;48.594;11.650;2022-07-30T13:52:52;3.03;;;2.42;;
40623;SDS011;26325;48.594;11.650;2022-07-30T13:55:21;4.72;;;2.88;;
40623;SDS011;26325;48.594;11.650;2022-07-30T13:57:46;2.55;;;2.30;;
40623;SDS011;26325;48.594;11.650;2022-07-30T14:00:12;2.50;;;2.30;;
40623;SDS011;26325;48.594;11.650;2022-07-30T14:02:38;2.70;;;2.53;;
40623;SDS011;26325;48.594;11.650;2022-07-30T14:05:04;2.40;;;2.20;;
40623;SDS011;26325;48.594;11.650;2022-07-30T14:07:34;3.05;;;2.45;;
40623;SDS011;26325;48.594;11.650;2022-07-30T14:10:01;2.80;;;2.38;;
40623;SDS011;26325;48.594;11.650;2022-07-30T14:12:30;2.60;;;2.40;;
40623;SDS011;26325;48.594;11.650;2022-07-30T14:15:03;4.18;;;2.53;;
40623;SDS011;26325;48.594;11.650;2022-07-30T14:17:29;4.60;;;2.60;;
40623;SDS011;26325;48.594;11.650;2022-07-30T14:19:59;3.35;;;2.42;;
40623;SDS011;26325;48.594;11.650;2022-07-30T14:22:25;2.40;;;2.30;;
40623;SDS011;26325;48.594;11.650;2022-07-30T14:24:52;2.40;;;2.28;;
40623;SDS011;26325;48.594;11.650;2022-07-30T14:27:18;2.80;;;2.60;;
40623;SDS011;26325;48.594;11.650;2022-07-30T14:29:45;2.65;;;2.45;;
40623;SDS011;26325;48.594;11.650;2022-07-30T14:32:11;2.65;;;2.45;;
40623;SDS011;26325;48.594;11.650;2022-07-30T14:34:39;2.65;;;2.45;;
40623;SDS011;26325;48.594;11.650;2022-07-30T14:37:05;3.38;;;2.45;;
40623;SDS011;26325;48.594;11.650;2022-07-30T14:39:33;2.80;;;2.70;;
40623;SDS011;26325;48.594;11.650;2022-07-30T14:41:58;3.97;;;2.30;;
40623;SDS011;26325;48.594;11.650;2022-07-30T14:44:32;2.80;;;2.60;;
40623;SDS011;26325;48.594;11.650;2022-07-30T14:46:58;2.65;;;2.45;;
40623;SDS011;26325;48.594;11.650;2022-07-30T14:49:23;2.47;;;2.33;;
40623;SDS011;26325;48.594;11.650;2022-07-30T14:51:49;2.80;;;2.60;;
40623;SDS011;26325;48.594;11.650;2022-07-30T14:54:15;2.35;;;2.20;;
40623;SDS011;26325;48.594;11.650;2022-07-30T14:56:41;2.70;;;2.50;;
40623;SDS011;26325;48.594;11.650;2022-07-30T14:59:07;2.65;;;2.45;;
40623;SDS011;26325;48.594;11.650;2022-07-30T15:01:33;3.60;;;2.50;;
40623;SDS011;26325;48.594;11.650;2022-07-30T15:04:00;2.92;;;2.72;;
40623;SDS011;26325;48.594;11.650;2022-07-30T15:06:26;3.05;;;2.60;;
40623;SDS011;26325;48.594;11.650;2022-07-30T15:08:52;2.60;;;2.40;;
40623;SDS011;26325;48.594;11.650;2022-07-30T15:11:18;2.50;;;2.30;;
40623;SDS011;26325;48.594;11.650;2022-07-30T15:13:44;2.72;;;2.50;;
40623;SDS011;26325;48.594;11.650;2022-07-30T15:16:09;3.05;;;2.85;;
40623;SDS011;26325;48.594;11.650;2022-07-30T15:18:35;3.08;;;2.88;;
40623;SDS011;26325;48.594;11.650;2022-07-30T15:21:01;2.97;;;2.78;;
40623;SDS011;26325;48.594;11.650;2022-07-30T15:23:29;3.00;;;2.90;;
40623;SDS011;26325;48.594;11.650;2022-07-30T15:25:54;3.15;;;2.85;;
40623;SDS011;26325;48.594;11.650;2022-07-30T15:28:22;3.63;;;2.90;;
40623;SDS011;26325;48.594;11.650;2022-07-30T15:30:50;2.72;;;2.53;;
40623;SDS011;26325;48.594;11.650;2022-07-30T15:33:15;2.90;;;2.70;;
40623;SDS011;26325;48.594;11.650;2022-07-30T15:35:41;3.08;;;2.78;;
40623;SDS011;26325;48.594;11.650;2022-07-30T15:38:07;4.00;;;2.67;;
40623;SDS011;26325;48.594;11.650;2022-07-30T15:40:34;3.65;;;2.40;;
40623;SDS011;26325;48.594;11.650;2022-07-30T15:43:00;2.60;;;2.40;;
40623;SDS011;26325;48.594;11.650;2022-07-30T15:45:28;3.20;;;2.90;;
40623;SDS011;26325;48.594;11.650;2022-07-30T15:47:54;2.65;;;2.45;;
40623;SDS011;26325;48.594;11.650;2022-07-30T15:50:21;7.40;;;6.82;;
40623;SDS011;26325;48.594;11.650;2022-07-30T15:52:48;5.20;;;4.55;;
40623;SDS011;26325;48.594;11.650;2022-07-30T15:55:14;2.80;;;2.60;;
40623;SDS011;26325;48.594;11.650;2022-07-30T15:57:40;2.45;;;2.30;;
40623;SDS011;26325;48.594;11.650;2022-07-30T16:00:07;2.63;;;2.42;;
40623;SDS011;26325;48.594;11.650;2022-07-30T16:02:39;2.45;;;2.35;;
40623;SDS011;26325;48.594;11.650;2022-07-30T16:05:08;2.70;;;2.50;;
40623;SDS011;26325;48.594;11.650;2022-07-30T16:07:36;2.78;;;2.65;;
40623;SDS011;26325;48.594;11.650;2022-07-30T16:10:04;3.00;;;2.65;;
40623;SDS011;26325;48.594;11.650;2022-07-30T16:12:30;2.97;;;2.78;;
40623;SDS011;26325;48.594;11.650;2022-07-30T16:14:55;3.53;;;2.38;;
40623;SDS011;26325;48.594;11.650;2022-07-30T16:17:23;2.83;;;2.63;;
40623;SDS011;26325;48.594;11.650;2022-07-30T16:19:50;2.97;;;2.42;;
40623;SDS011;26325;48.594;11.650;2022-07-30T16:22:15;2.75;;;2.55;;
40623;SDS011;26325;48.594;11.650;2022-07-30T16:24:41;2.53;;;2.30;;
40623;SDS011;26325;48.594;11.650;2022-07-30T16:27:09;2.50;;;2.40;;
40623;SDS011;26325;48.594;11.650;2022-07-30T16:29:38;2.88;;;2.53;;
40623;SDS011;26325;48.594;11.650;2022-07-30T16:32:04;2.25;;;2.15;;
40623;SDS011;26325;48.594;11.650;2022-07-30T16:34:38;3.28;;;2.20;;
40623;SDS011;26325;48.594;11.650;2022-07-30T16:37:06;2.22;;;2.10;;
40623;SDS011;26325;48.594;11.650;2022-07-30T16:39:34;2.55;;;2.35;;
40623;SDS011;26325;48.594;11.650;2022-07-30T16:42:00;2.30;;;2.10;;
40623;SDS011;26325;48.594;11.650;2022-07-30T16:44:28;2.33;;;2.05;;
40623;SDS011;26325;48.594;11.650;2022-07-30T16:46:58;2.75;;;2.42;;
40623;SDS011;26325;48.594;11.650;2022-07-30T16:49:26;2.83;;;2.40;;
40623;SDS011;26325;48.594;11.650;2022-07-30T16:51:52;2.60;;;2.40;;
40623;SDS011;26325;48.594;11.650;2022-07-30T16:54:19;2.63;;;2.42;;